sensor_id;sensor_type;location;lat;lon;timestamp;temperature;humidity
32787;DHT22;19139;49.372;8.580;2022-09-17T00:01:51;22.20;93.30
32787;DHT22;19139;49.372;8.580;2022-09-17T00:04:23;22.20;93.30
32787;DHT22;19139;49.372;8.580;2022-09-17T00:06:49;22.20;93.30
32787;DHT22;19139;49.372;8.580;2022-09-17T00:09:21;22.20;93.30
32787;DHT22;19139;49.372;8.580;2022-09-17T00:11:52;22.20;93.70
32787;DHT22;19139;49.372;8.580;2022-09-17T00:14:23;22.20;93.30
32787;DHT22;19139;49.372;8.580;2022-09-17T00:16:50;22.20;93.30
32787;DHT22;19139;49.372;8.580;2022-09-17T00:19:22;22.20;93.30
32787;DHT22;19139;49.372;8.580;2022-09-17T00:21:53;22.20;93.30
32787;DHT22;19139;49.372;8.580;2022-09-17T00:24:20;22.20;93.30
32787;DHT22;19139;49.372;8.580;2022-09-17T00:26:51;22.20;93.30
32787;DHT22;19139;49.372;8.580;2022-09-17T00:29:23;22.20;93.30
32787;DHT22;19139;49.372;8.580;2022-09-17T00:31:50;22.20;93.30
32787;DHT22;19139;49.372;8.580;2022-09-17T00:34:21;22.20;93.30
32787;DHT22;19139;49.372;8.580;2022-09-17T00:36:53;22.20;93.30
32787;DHT22;19139;49.372;8.580;2022-09-17T00:39:19;22.20;93.30
32787;DHT22;19139;49.372;8.580;2022-09-17T00:41:51;22.20;93.30
32787;DHT22;19139;49.372;8.580;2022-09-17T00:47:21;22.20;93.30
32787;DHT22;19139;49.372;8.580;2022-09-17T00:49:57;22.20;93.30
32787;DHT22;19139;49.372;8.580;2022-09-17T00:52:29;22.20;93.30
32787;DHT22;19139;49.372;8.580;2022-09-17T00:55:10;22.20;93.30
32787;DHT22;19139;49.372;8.580;2022-09-17T00:57:43;22.20;93.30
32787;DHT22;19139;49.372;8.580;2022-09-17T01:00:13;22.20;93.30
32787;DHT22;19139;49.372;8.580;2022-09-17T01:02:41;22.10;93.30
32787;DHT22;19139;49.372;8.580;2022-09-17T01:05:13;22.20;93.30
32787;DHT22;19139;49.372;8.580;2022-09-17T01:22:37;22.10;93.20
32787;DHT22;19139;49.372;8.580;2022-09-17T01:28:28;22.10;93.20
32787;DHT22;19139;49.372;8.580;2022-09-17T01:37:13;22.10;93.20
32787;DHT22;19139;49.372;8.580;2022-09-17T01:39:46;22.20;93.30
32787;DHT22;19139;49.372;8.580;2022-09-17T01:42:46;22.10;93.20
32787;DHT22;19139;49.372;8.580;2022-09-17T01:45:33;22.10;93.20
32787;DHT22;19139;49.372;8.580;2022-09-17T01:48:22;22.10;93.20
32787;DHT22;19139;49.372;8.580;2022-09-17T01:50:54;22.10;93.20
32787;DHT22;19139;49.372;8.580;2022-09-17T01:53:24;22.10;93.20
32787;DHT22;19139;49.372;8.580;2022-09-17T01:55:54;22.10;93.20
32787;DHT22;19139;49.372;8.580;2022-09-17T01:58:30;22.10;93.20
32787;DHT22;19139;49.372;8.580;2022-09-17T02:01:05;22.10;93.20
32787;DHT22;19139;49.372;8.580;2022-09-17T02:03:55;22.10;93.20
32787;DHT22;19139;49.372;8.580;2022-09-17T02:06:28;22.10;93.20
32787;DHT22;19139;49.372;8.580;2022-09-17T02:09:06;22.10;93.20
32787;DHT22;19139;49.372;8.580;2022-09-17T02:11:46;22.10;93.20
32787;DHT22;19139;49.372;8.580;2022-09-17T02:14:20;22.10;93.20
32787;DHT22;19139;49.372;8.580;2022-09-17T02:17:01;22.10;93.20
32787;DHT22;19139;49.372;8.580;2022-09-17T02:19:35;22.10;93.20
32787;DHT22;19139;49.372;8.580;2022-09-17T02:25:01;22.10;93.20
32787;DHT22;19139;49.372;8.580;2022-09-17T02:30:05;22.10;93.20
32787;DHT22;19139;49.372;8.580;2022-09-17T02:32:32;22.10;93.10
32787;DHT22;19139;49.372;8.580;2022-09-17T02:35:04;22.10;93.10
32787;DHT22;19139;49.372;8.580;2022-09-17T02:37:31;22.10;93.20
32787;DHT22;19139;49.372;8.580;2022-09-17T02:40:03;22.00;93.10
32787;DHT22;19139;49.372;8.580;2022-09-17T02:42:59;22.10;93.20
32787;DHT22;19139;49.372;8.580;2022-09-17T02:46:06;22.10;93.10
32787;DHT22;19139;49.372;8.580;2022-09-17T02:51:16;22.00;93.10
32787;DHT22;19139;49.372;8.580;2022-09-17T02:54:45;22.00;93.10
32787;DHT22;19139;49.372;8.580;2022-09-17T02:57:22;22.10;93.10
32787;DHT22;19139;49.372;8.580;2022-09-17T03:02:38;22.00;93.10
32787;DHT22;19139;49.372;8.580;2022-09-17T03:05:13;22.00;93.10
32787;DHT22;19139;49.372;8.580;2022-09-17T03:07:40;22.00;93.10
32787;DHT22;19139;49.372;8.580;2022-09-17T03:10:12;22.00;93.10
32787;DHT22;19139;49.372;8.580;2022-09-17T03:12:44;22.10;93.10
32787;DHT22;19139;49.372;8.580;2022-09-17T03:15:10;22.00;93.10
32787;DHT22;19139;49.372;8.580;2022-09-17T03:17:42;22.00;93.10
32787;DHT22;19139;49.372;8.580;2022-09-17T03:20:13;22.00;93.10
32787;DHT22;19139;49.372;8.580;2022-09-17T03:22:41;22.00;93.10
32787;DHT22;19139;49.372;8.580;2022-09-17T03:25:13;22.00;93.10
32787;DHT22;19139;49.372;8.580;2022-09-17T03:27:39;22.00;93.10
32787;DHT22;19139;49.372;8.580;2022-09-17T03:30:11;22.00;93.10
32787;DHT22;19139;49.372;8.580;2022-09-17T03:32:43;22.00;93.10
32787;DHT22;19139;49.372;8.580;2022-09-17T03:35:09;22.00;93.10
32787;DHT22;19139;49.372;8.580;2022-09-17T03:37:41;22.00;93.10
32787;DHT22;19139;49.372;8.580;2022-09-17T03:40:13;22.00;93.10
32787;DHT22;19139;49.372;8.580;2022-09-17T03:42:40;22.00;93.00
32787;DHT22;19139;49.372;8.580;2022-09-17T03:45:11;22.00;93.10
32787;DHT22;19139;49.372;8.580;2022-09-17T03:47:43;22.00;93.00
32787;DHT22;19139;49.372;8.580;2022-09-17T03:50:09;22.00;93.10
32787;DHT22;19139;49.372;8.580;2022-09-17T03:52:42;22.00;93.00
32787;DHT22;19139;49.372;8.580;2022-09-17T03:55:14;22.00;93.00
32787;DHT22;19139;49.372;8.580;2022-09-17T03:57:42;22.00;93.10
32787;DHT22;19139;49.372;8.580;2022-09-17T04:00:13;22.00;93.00
32787;DHT22;19139;49.372;8.580;2022-09-17T04:02:42;22.00;93.00
32787;DHT22;19139;49.372;8.580;2022-09-17T04:05:14;22.00;93.10
32787;DHT22;19139;49.372;8.580;2022-09-17T04:07:41;22.00;93.00
32787;DHT22;19139;49.372;8.580;2022-09-17T04:10:12;22.00;93.00
32787;DHT22;19139;49.372;8.580;2022-09-17T04:12:43;21.90;93.00
32787;DHT22;19139;49.372;8.580;2022-09-17T04:15:10;22.00;93.00
32787;DHT22;19139;49.372;8.580;2022-09-17T04:17:42;21.90;93.00
32787;DHT22;19139;49.372;8.580;2022-09-17T04:20:13;22.00;93.00
32787;DHT22;19139;49.372;8.580;2022-09-17T04:22:40;21.90;93.00
32787;DHT22;19139;49.372;8.580;2022-09-17T04:25:12;21.90;93.00
32787;DHT22;19139;49.372;8.580;2022-09-17T04:27:44;21.90;93.00
32787;DHT22;19139;49.372;8.580;2022-09-17T04:30:11;21.90;93.00
32787;DHT22;19139;49.372;8.580;2022-09-17T04:32:44;21.90;93.00
32787;DHT22;19139;49.372;8.580;2022-09-17T04:35:11;21.90;93.00
32787;DHT22;19139;49.372;8.580;2022-09-17T04:37:51;21.90;93.00
32787;DHT22;19139;49.372;8.580;2022-09-17T04:40:24;21.90;93.00
32787;DHT22;19139;49.372;8.580;2022-09-17T04:42:52;21.90;93.00
32787;DHT22;19139;49.372;8.580;2022-09-17T04:45:24;21.90;93.00
32787;DHT22;19139;49.372;8.580;2022-09-17T04:47:51;21.90;93.00
32787;DHT22;19139;49.372;8.580;2022-09-17T04:50:18;21.90;93.00
32787;DHT22;19139;49.372;8.580;2022-09-17T04:52:45;21.90;93.00
32787;DHT22;19139;49.372;8.580;2022-09-17T04:55:12;21.90;93.00
32787;DHT22;19139;49.372;8.580;2022-09-17T04:57:45;21.90;93.00
32787;DHT22;19139;49.372;8.580;2022-09-17T05:00:13;21.90;93.00
32787;DHT22;19139;49.372;8.580;2022-09-17T05:02:40;21.90;93.00
32787;DHT22;19139;49.372;8.580;2022-09-17T05:05:12;21.90;93.00
32787;DHT22;19139;49.372;8.580;2022-09-17T05:07:45;21.90;93.00
32787;DHT22;19139;49.372;8.580;2022-09-17T05:10:13;21.90;93.00
32787;DHT22;19139;49.372;8.580;2022-09-17T05:12:40;21.90;93.00
32787;DHT22;19139;49.372;8.580;2022-09-17T05:15:11;21.90;93.00
32787;DHT22;19139;49.372;8.580;2022-09-17T05:17:43;21.90;93.00
32787;DHT22;19139;49.372;8.580;2022-09-17T05:20:11;21.90;93.00
32787;DHT22;19139;49.372;8.580;2022-09-17T05:22:50;21.90;93.00
32787;DHT22;19139;49.372;8.580;2022-09-17T05:25:22;21.90;93.00
32787;DHT22;19139;49.372;8.580;2022-09-17T05:27:52;21.90;93.00
32787;DHT22;19139;49.372;8.580;2022-09-17T05:30:24;21.90;93.00
32787;DHT22;19139;49.372;8.580;2022-09-17T05:33:01;21.90;93.00
32787;DHT22;19139;49.372;8.580;2022-09-17T05:35:33;21.90;92.90
32787;DHT22;19139;49.372;8.580;2022-09-17T05:38:03;21.90;92.90
32787;DHT22;19139;49.372;8.580;2022-09-17T05:40:30;21.90;92.90
32787;DHT22;19139;49.372;8.580;2022-09-17T05:43:05;21.80;92.90
32787;DHT22;19139;49.372;8.580;2022-09-17T05:45:33;21.80;92.90
32787;DHT22;19139;49.372;8.580;2022-09-17T05:48:00;21.80;92.90
32787;DHT22;19139;49.372;8.580;2022-09-17T05:50:32;21.90;92.90
32787;DHT22;19139;49.372;8.580;2022-09-17T05:53:13;21.80;92.90
32787;DHT22;19139;49.372;8.580;2022-09-17T05:55:40;21.80;92.90
32787;DHT22;19139;49.372;8.580;2022-09-17T05:58:16;21.80;92.90
32787;DHT22;19139;49.372;8.580;2022-09-17T06:00:44;21.80;92.90
32787;DHT22;19139;49.372;8.580;2022-09-17T06:03:13;21.80;92.90
32787;DHT22;19139;49.372;8.580;2022-09-17T06:05:40;21.80;92.90
32787;DHT22;19139;49.372;8.580;2022-09-17T06:08:12;21.80;92.90
32787;DHT22;19139;49.372;8.580;2022-09-17T06:10:43;21.80;92.90
32787;DHT22;19139;49.372;8.580;2022-09-17T06:13:10;21.80;92.90
32787;DHT22;19139;49.372;8.580;2022-09-17T06:15:42;21.80;92.90
32787;DHT22;19139;49.372;8.580;2022-09-17T06:18:14;21.80;92.90
32787;DHT22;19139;49.372;8.580;2022-09-17T06:20:40;21.80;92.90
32787;DHT22;19139;49.372;8.580;2022-09-17T06:23:12;21.80;92.90
32787;DHT22;19139;49.372;8.580;2022-09-17T06:25:58;21.80;92.90
32787;DHT22;19139;49.372;8.580;2022-09-17T06:28:30;21.80;92.80
32787;DHT22;19139;49.372;8.580;2022-09-17T06:31:05;21.80;92.90
32787;DHT22;19139;49.372;8.580;2022-09-17T06:33:32;21.80;92.90
32787;DHT22;19139;49.372;8.580;2022-09-17T06:36:06;21.80;92.90
32787;DHT22;19139;49.372;8.580;2022-09-17T06:38:39;21.80;92.90
32787;DHT22;19139;49.372;8.580;2022-09-17T06:41:10;21.80;92.90
32787;DHT22;19139;49.372;8.580;2022-09-17T06:43:43;21.80;92.90
32787;DHT22;19139;49.372;8.580;2022-09-17T06:46:10;21.80;92.90
32787;DHT22;19139;49.372;8.580;2022-09-17T06:48:42;21.80;92.90
32787;DHT22;19139;49.372;8.580;2022-09-17T06:51:13;21.80;92.90
32787;DHT22;19139;49.372;8.580;2022-09-17T06:53:40;21.80;92.80
32787;DHT22;19139;49.372;8.580;2022-09-17T06:56:11;21.80;92.80
32787;DHT22;19139;49.372;8.580;2022-09-17T06:58:43;21.80;92.80
32787;DHT22;19139;49.372;8.580;2022-09-17T07:01:11;21.70;91.80
32787;DHT22;19139;49.372;8.580;2022-09-17T07:03:42;21.00;91.20
32787;DHT22;19139;49.372;8.580;2022-09-17T07:06:10;20.40;91.60
32787;DHT22;19139;49.372;8.580;2022-09-17T07:08:41;20.20;91.60
32787;DHT22;19139;49.372;8.580;2022-09-17T07:11:08;20.00;91.30
32787;DHT22;19139;49.372;8.580;2022-09-17T07:13:40;19.90;91.20
32787;DHT22;19139;49.372;8.580;2022-09-17T07:16:11;19.80;91.10
32787;DHT22;19139;49.372;8.580;2022-09-17T07:18:43;19.80;91.00
32787;DHT22;19139;49.372;8.580;2022-09-17T07:21:09;19.70;91.10
32787;DHT22;19139;49.372;8.580;2022-09-17T07:23:41;19.60;91.20
32787;DHT22;19139;49.372;8.580;2022-09-17T07:26:14;19.60;91.20
32787;DHT22;19139;49.372;8.580;2022-09-17T07:28:42;19.60;91.10
32787;DHT22;19139;49.372;8.580;2022-09-17T07:31:12;19.50;91.20
32787;DHT22;19139;49.372;8.580;2022-09-17T07:33:44;19.60;91.30
32787;DHT22;19139;49.372;8.580;2022-09-17T07:36:13;20.00;91.30
32787;DHT22;19139;49.372;8.580;2022-09-17T07:38:40;20.20;91.20
32787;DHT22;19139;49.372;8.580;2022-09-17T07:41:13;20.40;91.30
32787;DHT22;19139;49.372;8.580;2022-09-17T07:43:41;20.60;91.40
32787;DHT22;19139;49.372;8.580;2022-09-17T07:46:15;20.70;91.50
32787;DHT22;19139;49.372;8.580;2022-09-17T07:48:42;20.80;91.50
32787;DHT22;19139;49.372;8.580;2022-09-17T07:51:17;20.80;91.40
32787;DHT22;19139;49.372;8.580;2022-09-17T07:53:53;20.90;91.50
32787;DHT22;19139;49.372;8.580;2022-09-17T07:56:20;20.90;91.50
32787;DHT22;19139;49.372;8.580;2022-09-17T07:58:52;21.00;91.50
32787;DHT22;19139;49.372;8.580;2022-09-17T08:01:23;21.00;91.50
32787;DHT22;19139;49.372;8.580;2022-09-17T08:03:52;21.00;91.50
32787;DHT22;19139;49.372;8.580;2022-09-17T08:06:25;21.10;91.90
32787;DHT22;19139;49.372;8.580;2022-09-17T08:08:57;21.10;91.50
32787;DHT22;19139;49.372;8.580;2022-09-17T08:11:32;21.10;91.70
32787;DHT22;19139;49.372;8.580;2022-09-17T08:14:19;21.20;91.90
32787;DHT22;19139;49.372;8.580;2022-09-17T08:16:45;21.20;92.00
32787;DHT22;19139;49.372;8.580;2022-09-17T08:19:12;21.20;92.10
32787;DHT22;19139;49.372;8.580;2022-09-17T08:21:44;21.20;92.20
32787;DHT22;19139;49.372;8.580;2022-09-17T08:24:10;21.30;92.30
32787;DHT22;19139;49.372;8.580;2022-09-17T08:26:42;21.30;92.40
32787;DHT22;19139;49.372;8.580;2022-09-17T08:29:13;21.30;92.40
32787;DHT22;19139;49.372;8.580;2022-09-17T08:31:40;21.30;92.40
32787;DHT22;19139;49.372;8.580;2022-09-17T08:34:11;21.30;92.40
32787;DHT22;19139;49.372;8.580;2022-09-17T08:36:43;21.30;92.30
32787;DHT22;19139;49.372;8.580;2022-09-17T08:39:09;21.40;92.30
32787;DHT22;19139;49.372;8.580;2022-09-17T08:42:26;21.40;92.30
32787;DHT22;19139;49.372;8.580;2022-09-17T08:44:51;21.40;92.30
32787;DHT22;19139;49.372;8.580;2022-09-17T08:47:27;21.40;92.30
32787;DHT22;19139;49.372;8.580;2022-09-17T08:50:13;21.40;92.30
32787;DHT22;19139;49.372;8.580;2022-09-17T08:53:00;21.40;92.30
32787;DHT22;19139;49.372;8.580;2022-09-17T08:55:35;21.40;92.30
32787;DHT22;19139;49.372;8.580;2022-09-17T09:04:06;21.50;92.30
32787;DHT22;19139;49.372;8.580;2022-09-17T09:06:48;21.50;92.30
32787;DHT22;19139;49.372;8.580;2022-09-17T09:09:24;21.50;92.30
32787;DHT22;19139;49.372;8.580;2022-09-17T09:12:02;21.50;92.30
32787;DHT22;19139;49.372;8.580;2022-09-17T09:14:53;21.50;92.30
32787;DHT22;19139;49.372;8.580;2022-09-17T09:17:24;21.50;92.30
32787;DHT22;19139;49.372;8.580;2022-09-17T09:19:58;21.50;92.30
32787;DHT22;19139;49.372;8.580;2022-09-17T09:22:50;21.50;92.30
32787;DHT22;19139;49.372;8.580;2022-09-17T09:25:24;21.50;92.30
32787;DHT22;19139;49.372;8.580;2022-09-17T09:28:20;21.50;92.20
32787;DHT22;19139;49.372;8.580;2022-09-17T09:33:41;21.50;92.30
32787;DHT22;19139;49.372;8.580;2022-09-17T09:36:16;21.50;92.30
32787;DHT22;19139;49.372;8.580;2022-09-17T09:38:56;21.60;92.30
32787;DHT22;19139;49.372;8.580;2022-09-17T09:44:40;21.50;92.30
32787;DHT22;19139;49.372;8.580;2022-09-17T09:47:24;21.60;92.30
32787;DHT22;19139;49.372;8.580;2022-09-17T09:53:32;21.60;92.30
32787;DHT22;19139;49.372;8.580;2022-09-17T09:58:40;21.60;92.30
32787;DHT22;19139;49.372;8.580;2022-09-17T10:01:14;21.60;92.30
32787;DHT22;19139;49.372;8.580;2022-09-17T10:03:47;21.60;92.30
32787;DHT22;19139;49.372;8.580;2022-09-17T10:06:19;21.60;92.40
32787;DHT22;19139;49.372;8.580;2022-09-17T10:11:23;21.60;92.40
32787;DHT22;19139;49.372;8.580;2022-09-17T10:13:50;21.60;92.40
32787;DHT22;19139;49.372;8.580;2022-09-17T10:16:24;21.60;92.40
32787;DHT22;19139;49.372;8.580;2022-09-17T10:21:39;21.60;92.40
32787;DHT22;19139;49.372;8.580;2022-09-17T10:24:23;21.60;92.40
32787;DHT22;19139;49.372;8.580;2022-09-17T10:26:59;21.60;92.40
32787;DHT22;19139;49.372;8.580;2022-09-17T10:29:30;21.70;92.50
32787;DHT22;19139;49.372;8.580;2022-09-17T10:32:03;21.60;92.40
32787;DHT22;19139;49.372;8.580;2022-09-17T10:34:37;21.70;92.50
32787;DHT22;19139;49.372;8.580;2022-09-17T10:37:43;21.60;92.50
32787;DHT22;19139;49.372;8.580;2022-09-17T10:40:25;21.60;92.50
32787;DHT22;19139;49.372;8.580;2022-09-17T10:45:44;21.60;92.50
32787;DHT22;19139;49.372;8.580;2022-09-17T10:48:18;21.70;92.50
32787;DHT22;19139;49.372;8.580;2022-09-17T10:50:53;21.70;92.50
32787;DHT22;19139;49.372;8.580;2022-09-17T10:53:26;21.70;92.50
32787;DHT22;19139;49.372;8.580;2022-09-17T10:56:09;21.70;92.50
32787;DHT22;19139;49.372;8.580;2022-09-17T11:02:03;21.70;92.50
32787;DHT22;19139;49.372;8.580;2022-09-17T11:07:58;21.70;92.60
32787;DHT22;19139;49.372;8.580;2022-09-17T11:18:29;21.70;92.60
32787;DHT22;19139;49.372;8.580;2022-09-17T11:21:32;21.70;92.60
32787;DHT22;19139;49.372;8.580;2022-09-17T11:24:16;21.70;92.70
32787;DHT22;19139;49.372;8.580;2022-09-17T11:27:02;21.70;92.70
32787;DHT22;19139;49.372;8.580;2022-09-17T11:35:16;21.70;92.70
32787;DHT22;19139;49.372;8.580;2022-09-17T11:38:01;21.70;92.70
32787;DHT22;19139;49.372;8.580;2022-09-17T11:40:40;21.70;92.70
32787;DHT22;19139;49.372;8.580;2022-09-17T11:49:02;21.80;92.70
32787;DHT22;19139;49.372;8.580;2022-09-17T11:51:35;21.80;92.70
32787;DHT22;19139;49.372;8.580;2022-09-17T11:54:18;21.70;92.70
32787;DHT22;19139;49.372;8.580;2022-09-17T11:57:10;21.80;92.70
32787;DHT22;19139;49.372;8.580;2022-09-17T11:59:58;21.80;92.70
32787;DHT22;19139;49.372;8.580;2022-09-17T12:05:24;21.80;92.80
32787;DHT22;19139;49.372;8.580;2022-09-17T12:13:46;21.80;92.70
32787;DHT22;19139;49.372;8.580;2022-09-17T12:16:26;21.80;92.80
32787;DHT22;19139;49.372;8.580;2022-09-17T12:21:47;21.80;92.80
32787;DHT22;19139;49.372;8.580;2022-09-17T12:24:28;21.80;92.80
32787;DHT22;19139;49.372;8.580;2022-09-17T12:30:05;21.80;92.80
32787;DHT22;19139;49.372;8.580;2022-09-17T12:32:49;21.80;92.70
32787;DHT22;19139;49.372;8.580;2022-09-17T12:38:57;21.80;92.80
32787;DHT22;19139;49.372;8.580;2022-09-17T12:48:07;21.90;92.80
32787;DHT22;19139;49.372;8.580;2022-09-17T12:50:38;22.00;92.80
32787;DHT22;19139;49.372;8.580;2022-09-17T12:53:30;22.00;92.80
32787;DHT22;19139;49.372;8.580;2022-09-17T12:56:31;22.00;92.80
32787;DHT22;19139;49.372;8.580;2022-09-17T12:59:16;22.00;92.80
32787;DHT22;19139;49.372;8.580;2022-09-17T13:02:14;22.00;92.80
32787;DHT22;19139;49.372;8.580;2022-09-17T13:15:42;22.10;92.90
32787;DHT22;19139;49.372;8.580;2022-09-17T13:18:14;22.00;92.90
32787;DHT22;19139;49.372;8.580;2022-09-17T13:21:16;22.00;92.90
32787;DHT22;19139;49.372;8.580;2022-09-17T13:23:48;22.00;93.00
32787;DHT22;19139;49.372;8.580;2022-09-17T13:26:19;22.10;93.00
32787;DHT22;19139;49.372;8.580;2022-09-17T13:28:49;22.10;93.00
32787;DHT22;19139;49.372;8.580;2022-09-17T13:34:02;22.10;93.00
32787;DHT22;19139;49.372;8.580;2022-09-17T13:39:03;22.10;93.10
32787;DHT22;19139;49.372;8.580;2022-09-17T13:41:37;22.00;93.00
32787;DHT22;19139;49.372;8.580;2022-09-17T13:44:05;22.00;93.00
32787;DHT22;19139;49.372;8.580;2022-09-17T13:46:35;22.00;93.00
32787;DHT22;19139;49.372;8.580;2022-09-17T13:49:10;22.00;93.00
32787;DHT22;19139;49.372;8.580;2022-09-17T13:51:45;22.00;93.00
32787;DHT22;19139;49.372;8.580;2022-09-17T13:54:14;22.10;93.00
32787;DHT22;19139;49.372;8.580;2022-09-17T13:56:51;22.10;93.10
32787;DHT22;19139;49.372;8.580;2022-09-17T13:59:33;22.10;93.10
32787;DHT22;19139;49.372;8.580;2022-09-17T14:02:30;22.10;93.10
32787;DHT22;19139;49.372;8.580;2022-09-17T14:05:23;22.10;93.00
32787;DHT22;19139;49.372;8.580;2022-09-17T14:07:51;22.10;93.00
32787;DHT22;19139;49.372;8.580;2022-09-17T14:10:39;22.10;93.10
32787;DHT22;19139;49.372;8.580;2022-09-17T14:13:46;22.10;93.00
32787;DHT22;19139;49.372;8.580;2022-09-17T14:19:26;22.00;92.30
32787;DHT22;19139;49.372;8.580;2022-09-17T14:27:32;21.90;91.80
32787;DHT22;19139;49.372;8.580;2022-09-17T14:30:17;21.90;91.50
32787;DHT22;19139;49.372;8.580;2022-09-17T14:38:19;21.90;91.00
32787;DHT22;19139;49.372;8.580;2022-09-17T14:41:04;21.80;90.70
32787;DHT22;19139;49.372;8.580;2022-09-17T14:46:11;21.80;90.10
32787;DHT22;19139;49.372;8.580;2022-09-17T14:48:44;21.80;90.10
32787;DHT22;19139;49.372;8.580;2022-09-17T14:53:47;21.80;88.60
32787;DHT22;19139;49.372;8.580;2022-09-17T14:56:18;21.70;88.30
32787;DHT22;19139;49.372;8.580;2022-09-17T14:58:47;21.80;87.90
32787;DHT22;19139;49.372;8.580;2022-09-17T15:04:17;21.70;87.20
32787;DHT22;19139;49.372;8.580;2022-09-17T15:06:45;21.70;86.70
32787;DHT22;19139;49.372;8.580;2022-09-17T15:09:21;21.70;86.50
32787;DHT22;19139;49.372;8.580;2022-09-17T15:11:54;21.70;86.40
32787;DHT22;19139;49.372;8.580;2022-09-17T15:14:28;21.70;86.00
32787;DHT22;19139;49.372;8.580;2022-09-17T15:16:57;21.70;85.40
32787;DHT22;19139;49.372;8.580;2022-09-17T15:19:39;21.60;85.10
32787;DHT22;19139;49.372;8.580;2022-09-17T15:22:29;21.60;85.10
32787;DHT22;19139;49.372;8.580;2022-09-17T15:25:14;21.60;85.00
32787;DHT22;19139;49.372;8.580;2022-09-17T15:27:44;21.50;84.90
32787;DHT22;19139;49.372;8.580;2022-09-17T15:32:53;21.50;84.50
32787;DHT22;19139;49.372;8.580;2022-09-17T15:35:28;21.50;84.80
32787;DHT22;19139;49.372;8.580;2022-09-17T15:37:58;21.50;84.80
32787;DHT22;19139;49.372;8.580;2022-09-17T15:40:45;21.50;84.60
32787;DHT22;19139;49.372;8.580;2022-09-17T15:45:53;21.50;84.80
32787;DHT22;19139;49.372;8.580;2022-09-17T15:48:34;21.40;84.80
32787;DHT22;19139;49.372;8.580;2022-09-17T15:51:02;21.40;84.80
32787;DHT22;19139;49.372;8.580;2022-09-17T15:53:31;21.40;85.00
32787;DHT22;19139;49.372;8.580;2022-09-17T15:56:05;21.40;85.00
32787;DHT22;19139;49.372;8.580;2022-09-17T15:58:48;21.40;85.00
32787;DHT22;19139;49.372;8.580;2022-09-17T16:08:53;21.40;84.90
32787;DHT22;19139;49.372;8.580;2022-09-17T16:11:24;21.40;84.80
32787;DHT22;19139;49.372;8.580;2022-09-17T16:13:54;21.40;84.80
32787;DHT22;19139;49.372;8.580;2022-09-17T16:16:33;21.40;84.70
32787;DHT22;19139;49.372;8.580;2022-09-17T16:19:01;21.40;84.80
32787;DHT22;19139;49.372;8.580;2022-09-17T16:21:28;21.30;85.60
32787;DHT22;19139;49.372;8.580;2022-09-17T16:23:54;21.30;85.00
32787;DHT22;19139;49.372;8.580;2022-09-17T16:26:32;21.30;84.70
32787;DHT22;19139;49.372;8.580;2022-09-17T16:29:26;21.30;84.90
32787;DHT22;19139;49.372;8.580;2022-09-17T16:31:53;21.30;85.00
32787;DHT22;19139;49.372;8.580;2022-09-17T16:34:19;21.30;85.00
32787;DHT22;19139;49.372;8.580;2022-09-17T16:36:46;21.20;85.10
32787;DHT22;19139;49.372;8.580;2022-09-17T16:39:12;21.20;85.10
32787;DHT22;19139;49.372;8.580;2022-09-17T16:41:39;21.20;85.30
32787;DHT22;19139;49.372;8.580;2022-09-17T16:44:06;21.20;85.30
32787;DHT22;19139;49.372;8.580;2022-09-17T16:46:32;21.20;85.30
32787;DHT22;19139;49.372;8.580;2022-09-17T16:48:59;21.20;86.10
32787;DHT22;19139;49.372;8.580;2022-09-17T16:51:26;21.20;86.80
32787;DHT22;19139;49.372;8.580;2022-09-17T16:53:52;21.30;87.30
32787;DHT22;19139;49.372;8.580;2022-09-17T16:56:19;21.30;87.60
32787;DHT22;19139;49.372;8.580;2022-09-17T16:58:46;21.30;87.50
32787;DHT22;19139;49.372;8.580;2022-09-17T17:01:14;21.30;88.00
32787;DHT22;19139;49.372;8.580;2022-09-17T17:03:41;21.40;88.30
32787;DHT22;19139;49.372;8.580;2022-09-17T17:06:18;21.40;88.40
32787;DHT22;19139;49.372;8.580;2022-09-17T17:08:46;21.40;88.60
32787;DHT22;19139;49.372;8.580;2022-09-17T17:11:13;21.40;88.80
32787;DHT22;19139;49.372;8.580;2022-09-17T17:13:43;21.40;88.80
32787;DHT22;19139;49.372;8.580;2022-09-17T17:16:12;21.50;89.10
32787;DHT22;19139;49.372;8.580;2022-09-17T17:18:43;21.50;89.20
32787;DHT22;19139;49.372;8.580;2022-09-17T17:21:12;21.50;89.20
32787;DHT22;19139;49.372;8.580;2022-09-17T17:23:39;21.50;89.30
32787;DHT22;19139;49.372;8.580;2022-09-17T17:26:05;21.50;89.30
32787;DHT22;19139;49.372;8.580;2022-09-17T17:28:33;21.50;89.40
32787;DHT22;19139;49.372;8.580;2022-09-17T17:31:01;21.50;89.40
32787;DHT22;19139;49.372;8.580;2022-09-17T17:33:28;21.50;89.50
32787;DHT22;19139;49.372;8.580;2022-09-17T17:35:59;21.50;89.60
32787;DHT22;19139;49.372;8.580;2022-09-17T17:38:33;21.50;89.70
32787;DHT22;19139;49.372;8.580;2022-09-17T17:41:03;21.50;89.80
32787;DHT22;19139;49.372;8.580;2022-09-17T17:43:30;21.50;89.90
32787;DHT22;19139;49.372;8.580;2022-09-17T17:45:57;21.50;90.00
32787;DHT22;19139;49.372;8.580;2022-09-17T17:48:24;21.50;90.00
32787;DHT22;19139;49.372;8.580;2022-09-17T17:50:50;21.50;90.00
32787;DHT22;19139;49.372;8.580;2022-09-17T17:53:22;21.50;90.00
32787;DHT22;19139;49.372;8.580;2022-09-17T17:55:59;21.50;90.00
32787;DHT22;19139;49.372;8.580;2022-09-17T17:58:27;21.50;90.00
32787;DHT22;19139;49.372;8.580;2022-09-17T18:00:54;21.50;90.10
32787;DHT22;19139;49.372;8.580;2022-09-17T18:03:21;21.50;90.10
32787;DHT22;19139;49.372;8.580;2022-09-17T18:05:51;21.50;90.10
32787;DHT22;19139;49.372;8.580;2022-09-17T18:08:18;21.50;90.10
32787;DHT22;19139;49.372;8.580;2022-09-17T18:10:56;21.50;90.20
32787;DHT22;19139;49.372;8.580;2022-09-17T18:13:23;21.50;90.20
32787;DHT22;19139;49.372;8.580;2022-09-17T18:15:55;21.50;90.20
32787;DHT22;19139;49.372;8.580;2022-09-17T18:18:23;21.50;90.20
32787;DHT22;19139;49.372;8.580;2022-09-17T18:20:50;21.50;90.60
32787;DHT22;19139;49.372;8.580;2022-09-17T18:23:19;21.50;90.30
32787;DHT22;19139;49.372;8.580;2022-09-17T18:25:56;21.50;90.30
32787;DHT22;19139;49.372;8.580;2022-09-17T18:28:24;21.50;90.30
32787;DHT22;19139;49.372;8.580;2022-09-17T18:30:51;21.50;90.30
32787;DHT22;19139;49.372;8.580;2022-09-17T18:33:25;21.50;90.30
32787;DHT22;19139;49.372;8.580;2022-09-17T18:35:53;21.50;90.40
32787;DHT22;19139;49.372;8.580;2022-09-17T18:38:23;21.50;90.40
32787;DHT22;19139;49.372;8.580;2022-09-17T18:40:50;21.50;90.40
32787;DHT22;19139;49.372;8.580;2022-09-17T18:43:17;21.50;90.40
32787;DHT22;19139;49.372;8.580;2022-09-17T18:45:52;21.50;90.40
32787;DHT22;19139;49.372;8.580;2022-09-17T18:48:19;21.50;90.50
32787;DHT22;19139;49.372;8.580;2022-09-17T18:53:33;21.50;90.40
32787;DHT22;19139;49.372;8.580;2022-09-17T18:56:25;21.50;90.50
32787;DHT22;19139;49.372;8.580;2022-09-17T18:58:55;21.50;90.50